sensor_id;sensor_type;location;lat;lon;timestamp;P1;durP1;ratioP1;P2;durP2;ratioP2
12675;SDS011;63820;65.654;21.944;2023-09-19T00:01:41;1.60;;;1.00;;
12675;SDS011;63820;65.654;21.944;2023-09-19T00:04:25;0.80;;;0.80;;
12675;SDS011;63820;65.654;21.944;2023-09-19T00:07:12;1.90;;;0.90;;
12675;SDS011;63820;65.654;21.944;2023-09-19T00:09:57;1.37;;;0.70;;
12675;SDS011;63820;65.654;21.944;2023-09-19T00:12:44;1.27;;;0.80;;
12675;SDS011;63820;65.654;21.944;2023-09-19T00:15:29;1.70;;;0.80;;
12675;SDS011;63820;65.654;21.944;2023-09-19T00:18:13;0.90;;;0.70;;
12675;SDS011;63820;65.654;21.944;2023-09-19T00:20:59;1.00;;;0.60;;
12675;SDS011;63820;65.654;21.944;2023-09-19T00:23:43;2.13;;;0.73;;
12675;SDS011;63820;65.654;21.944;2023-09-19T00:26:27;0.60;;;0.60;;
12675;SDS011;63820;65.654;21.944;2023-09-19T00:29:14;1.23;;;0.60;;
12675;SDS011;63820;65.654;21.944;2023-09-19T00:31:59;0.90;;;0.60;;
12675;SDS011;63820;65.654;21.944;2023-09-19T00:34:44;0.83;;;0.40;;
12675;SDS011;63820;65.654;21.944;2023-09-19T00:37:28;1.93;;;0.90;;
12675;SDS011;63820;65.654;21.944;2023-09-19T00:40:12;1.00;;;0.80;;
12675;SDS011;63820;65.654;21.944;2023-09-19T00:42:57;1.10;;;0.63;;
12675;SDS011;63820;65.654;21.944;2023-09-19T00:45:45;2.53;;;0.70;;
12675;SDS011;63820;65.654;21.944;2023-09-19T00:48:41;2.03;;;0.70;;
12675;SDS011;63820;65.654;21.944;2023-09-19T00:51:27;0.97;;;0.70;;
12675;SDS011;63820;65.654;21.944;2023-09-19T00:54:11;1.10;;;0.70;;
12675;SDS011;63820;65.654;21.944;2023-09-19T00:57:01;1.07;;;0.80;;
12675;SDS011;63820;65.654;21.944;2023-09-19T00:59:46;0.60;;;0.50;;
12675;SDS011;63820;65.654;21.944;2023-09-19T01:02:34;0.73;;;0.50;;
12675;SDS011;63820;65.654;21.944;2023-09-19T01:05:18;1.47;;;0.87;;
12675;SDS011;63820;65.654;21.944;2023-09-19T01:08:02;1.47;;;0.60;;
12675;SDS011;63820;65.654;21.944;2023-09-19T01:10:55;0.97;;;0.60;;
12675;SDS011;63820;65.654;21.944;2023-09-19T01:16:33;1.80;;;0.53;;
12675;SDS011;63820;65.654;21.944;2023-09-19T01:22:26;3.30;;;0.80;;
12675;SDS011;63820;65.654;21.944;2023-09-19T01:31:45;0.40;;;0.40;;
12675;SDS011;63820;65.654;21.944;2023-09-19T01:34:44;1.70;;;0.60;;
12675;SDS011;63820;65.654;21.944;2023-09-19T01:37:30;1.07;;;0.90;;
12675;SDS011;63820;65.654;21.944;2023-09-19T01:40:16;1.13;;;0.50;;
12675;SDS011;63820;65.654;21.944;2023-09-19T01:43:09;1.33;;;0.50;;
12675;SDS011;63820;65.654;21.944;2023-09-19T01:52:11;0.70;;;0.70;;
12675;SDS011;63820;65.654;21.944;2023-09-19T01:55:05;0.97;;;0.67;;
12675;SDS011;63820;65.654;21.944;2023-09-19T02:01:04;1.00;;;0.60;;
12675;SDS011;63820;65.654;21.944;2023-09-19T02:03:51;0.67;;;0.53;;
12675;SDS011;63820;65.654;21.944;2023-09-19T02:06:40;0.80;;;0.67;;
12675;SDS011;63820;65.654;21.944;2023-09-19T02:09:26;1.10;;;0.67;;
12675;SDS011;63820;65.654;21.944;2023-09-19T02:12:10;1.00;;;0.70;;
12675;SDS011;63820;65.654;21.944;2023-09-19T02:14:54;1.23;;;0.70;;
12675;SDS011;63820;65.654;21.944;2023-09-19T02:17:41;0.80;;;0.70;;
12675;SDS011;63820;65.654;21.944;2023-09-19T02:20:27;0.97;;;0.70;;
12675;SDS011;63820;65.654;21.944;2023-09-19T02:23:12;0.80;;;0.70;;
12675;SDS011;63820;65.654;21.944;2023-09-19T02:25:56;0.80;;;0.70;;
12675;SDS011;63820;65.654;21.944;2023-09-19T02:28:50;1.50;;;0.77;;
12675;SDS011;63820;65.654;21.944;2023-09-19T02:31:34;0.90;;;0.70;;
12675;SDS011;63820;65.654;21.944;2023-09-19T02:34:18;2.13;;;0.83;;
12675;SDS011;63820;65.654;21.944;2023-09-19T02:37:03;0.77;;;0.60;;
12675;SDS011;63820;65.654;21.944;2023-09-19T02:39:48;2.27;;;0.80;;
12675;SDS011;63820;65.654;21.944;2023-09-19T02:42:32;1.37;;;0.80;;
12675;SDS011;63820;65.654;21.944;2023-09-19T02:45:16;2.00;;;0.70;;
12675;SDS011;63820;65.654;21.944;2023-09-19T02:48:04;1.77;;;1.00;;
12675;SDS011;63820;65.654;21.944;2023-09-19T02:50:51;1.33;;;0.80;;
12675;SDS011;63820;65.654;21.944;2023-09-19T02:53:36;0.53;;;0.50;;
12675;SDS011;63820;65.654;21.944;2023-09-19T02:56:20;1.13;;;0.67;;
12675;SDS011;63820;65.654;21.944;2023-09-19T02:59:04;1.07;;;0.50;;
12675;SDS011;63820;65.654;21.944;2023-09-19T03:01:49;1.33;;;0.60;;
12675;SDS011;63820;65.654;21.944;2023-09-19T03:04:33;1.00;;;0.70;;
12675;SDS011;63820;65.654;21.944;2023-09-19T03:07:18;1.07;;;0.70;;
12675;SDS011;63820;65.654;21.944;2023-09-19T03:10:03;1.93;;;0.70;;
12675;SDS011;63820;65.654;21.944;2023-09-19T03:12:49;0.60;;;0.60;;
12675;SDS011;63820;65.654;21.944;2023-09-19T03:15:34;1.07;;;0.63;;
12675;SDS011;63820;65.654;21.944;2023-09-19T03:18:18;1.63;;;1.07;;
12675;SDS011;63820;65.654;21.944;2023-09-19T03:21:02;1.67;;;0.70;;
12675;SDS011;63820;65.654;21.944;2023-09-19T03:23:46;1.73;;;0.60;;
12675;SDS011;63820;65.654;21.944;2023-09-19T03:26:30;1.27;;;0.90;;
12675;SDS011;63820;65.654;21.944;2023-09-19T03:29:14;1.87;;;0.80;;
12675;SDS011;63820;65.654;21.944;2023-09-19T03:31:59;0.77;;;0.70;;
12675;SDS011;63820;65.654;21.944;2023-09-19T03:34:43;1.23;;;0.80;;
12675;SDS011;63820;65.654;21.944;2023-09-19T03:37:27;1.30;;;0.60;;
12675;SDS011;63820;65.654;21.944;2023-09-19T03:40:11;2.43;;;0.90;;
12675;SDS011;63820;65.654;21.944;2023-09-19T03:43:00;0.93;;;0.70;;
12675;SDS011;63820;65.654;21.944;2023-09-19T03:45:44;1.10;;;0.70;;
12675;SDS011;63820;65.654;21.944;2023-09-19T03:48:30;1.47;;;0.83;;
12675;SDS011;63820;65.654;21.944;2023-09-19T03:51:14;2.90;;;0.90;;
12675;SDS011;63820;65.654;21.944;2023-09-19T03:53:58;1.63;;;0.77;;
12675;SDS011;63820;65.654;21.944;2023-09-19T03:56:42;1.43;;;0.70;;
12675;SDS011;63820;65.654;21.944;2023-09-19T03:59:27;0.80;;;0.70;;
12675;SDS011;63820;65.654;21.944;2023-09-19T04:02:13;1.13;;;0.80;;
12675;SDS011;63820;65.654;21.944;2023-09-19T04:05:05;1.33;;;1.00;;
12675;SDS011;63820;65.654;21.944;2023-09-19T04:07:50;1.67;;;0.73;;
12675;SDS011;63820;65.654;21.944;2023-09-19T04:10:34;0.93;;;0.70;;
12675;SDS011;63820;65.654;21.944;2023-09-19T04:13:17;2.43;;;0.83;;
12675;SDS011;63820;65.654;21.944;2023-09-19T04:16:02;2.27;;;1.00;;
12675;SDS011;63820;65.654;21.944;2023-09-19T04:18:50;2.83;;;0.90;;
12675;SDS011;63820;65.654;21.944;2023-09-19T04:21:35;2.47;;;0.97;;
12675;SDS011;63820;65.654;21.944;2023-09-19T04:24:19;1.97;;;0.80;;
12675;SDS011;63820;65.654;21.944;2023-09-19T04:27:03;1.30;;;0.90;;
12675;SDS011;63820;65.654;21.944;2023-09-19T04:29:48;1.43;;;0.83;;
12675;SDS011;63820;65.654;21.944;2023-09-19T04:32:33;2.10;;;1.03;;
12675;SDS011;63820;65.654;21.944;2023-09-19T04:35:17;1.23;;;0.97;;
12675;SDS011;63820;65.654;21.944;2023-09-19T04:38:01;2.13;;;0.97;;
12675;SDS011;63820;65.654;21.944;2023-09-19T04:40:47;3.27;;;0.90;;
12675;SDS011;63820;65.654;21.944;2023-09-19T04:43:31;2.70;;;1.07;;
12675;SDS011;63820;65.654;21.944;2023-09-19T04:46:15;2.40;;;0.90;;
12675;SDS011;63820;65.654;21.944;2023-09-19T04:49:01;1.60;;;1.10;;
12675;SDS011;63820;65.654;21.944;2023-09-19T04:51:46;1.77;;;1.00;;
12675;SDS011;63820;65.654;21.944;2023-09-19T04:54:31;2.37;;;1.07;;
12675;SDS011;63820;65.654;21.944;2023-09-19T04:57:15;3.07;;;1.10;;
12675;SDS011;63820;65.654;21.944;2023-09-19T04:59:59;2.13;;;0.83;;
12675;SDS011;63820;65.654;21.944;2023-09-19T05:02:43;1.43;;;0.80;;
12675;SDS011;63820;65.654;21.944;2023-09-19T05:05:28;1.00;;;0.90;;
12675;SDS011;63820;65.654;21.944;2023-09-19T05:08:12;1.10;;;0.83;;
12675;SDS011;63820;65.654;21.944;2023-09-19T05:10:58;0.73;;;0.70;;
12675;SDS011;63820;65.654;21.944;2023-09-19T05:13:45;1.27;;;0.90;;
12675;SDS011;63820;65.654;21.944;2023-09-19T05:16:29;1.20;;;0.80;;
12675;SDS011;63820;65.654;21.944;2023-09-19T05:19:15;1.57;;;0.60;;
12675;SDS011;63820;65.654;21.944;2023-09-19T05:21:59;1.07;;;0.83;;
12675;SDS011;63820;65.654;21.944;2023-09-19T05:24:43;1.33;;;0.70;;
12675;SDS011;63820;65.654;21.944;2023-09-19T05:27:27;1.63;;;0.80;;
12675;SDS011;63820;65.654;21.944;2023-09-19T05:30:11;1.37;;;0.93;;
12675;SDS011;63820;65.654;21.944;2023-09-19T05:32:58;1.53;;;1.10;;
12675;SDS011;63820;65.654;21.944;2023-09-19T05:35:42;1.50;;;1.10;;
12675;SDS011;63820;65.654;21.944;2023-09-19T05:38:26;2.43;;;0.80;;
12675;SDS011;63820;65.654;21.944;2023-09-19T05:41:11;4.43;;;0.90;;
12675;SDS011;63820;65.654;21.944;2023-09-19T05:43:57;2.20;;;0.80;;
12675;SDS011;63820;65.654;21.944;2023-09-19T05:46:43;1.03;;;0.80;;
12675;SDS011;63820;65.654;21.944;2023-09-19T05:49:28;1.03;;;0.70;;
12675;SDS011;63820;65.654;21.944;2023-09-19T05:52:13;1.73;;;0.80;;
12675;SDS011;63820;65.654;21.944;2023-09-19T05:54:57;1.90;;;1.00;;
12675;SDS011;63820;65.654;21.944;2023-09-19T05:57:41;0.73;;;0.60;;
12675;SDS011;63820;65.654;21.944;2023-09-19T06:00:28;1.43;;;0.70;;
12675;SDS011;63820;65.654;21.944;2023-09-19T06:03:15;1.90;;;1.27;;
12675;SDS011;63820;65.654;21.944;2023-09-19T06:06:01;1.77;;;0.70;;
12675;SDS011;63820;65.654;21.944;2023-09-19T06:08:46;1.80;;;0.50;;
12675;SDS011;63820;65.654;21.944;2023-09-19T06:11:30;2.27;;;0.73;;
12675;SDS011;63820;65.654;21.944;2023-09-19T06:14:16;1.17;;;0.67;;
12675;SDS011;63820;65.654;21.944;2023-09-19T06:17:01;0.90;;;0.80;;
12675;SDS011;63820;65.654;21.944;2023-09-19T06:19:45;2.30;;;1.03;;
12675;SDS011;63820;65.654;21.944;2023-09-19T06:22:30;1.33;;;0.80;;
12675;SDS011;63820;65.654;21.944;2023-09-19T06:25:15;1.43;;;0.90;;
12675;SDS011;63820;65.654;21.944;2023-09-19T06:28:03;1.67;;;0.73;;
12675;SDS011;63820;65.654;21.944;2023-09-19T06:30:48;2.03;;;0.90;;
12675;SDS011;63820;65.654;21.944;2023-09-19T06:33:33;1.37;;;0.70;;
12675;SDS011;63820;65.654;21.944;2023-09-19T06:36:17;1.83;;;0.90;;
12675;SDS011;63820;65.654;21.944;2023-09-19T06:39:01;1.23;;;0.70;;
12675;SDS011;63820;65.654;21.944;2023-09-19T06:41:48;0.90;;;0.77;;
12675;SDS011;63820;65.654;21.944;2023-09-19T06:44:33;2.13;;;0.70;;
12675;SDS011;63820;65.654;21.944;2023-09-19T06:47:17;1.20;;;0.93;;
12675;SDS011;63820;65.654;21.944;2023-09-19T06:50:01;1.83;;;0.93;;
12675;SDS011;63820;65.654;21.944;2023-09-19T06:52:46;1.80;;;0.60;;
12675;SDS011;63820;65.654;21.944;2023-09-19T06:55:33;2.87;;;1.00;;
12675;SDS011;63820;65.654;21.944;2023-09-19T06:58:18;3.30;;;1.10;;
12675;SDS011;63820;65.654;21.944;2023-09-19T07:01:03;0.90;;;0.70;;
12675;SDS011;63820;65.654;21.944;2023-09-19T07:03:46;2.50;;;0.93;;
12675;SDS011;63820;65.654;21.944;2023-09-19T07:06:30;1.20;;;0.80;;
12675;SDS011;63820;65.654;21.944;2023-09-19T07:09:14;1.30;;;1.00;;
12675;SDS011;63820;65.654;21.944;2023-09-19T07:11:59;1.87;;;0.77;;
12675;SDS011;63820;65.654;21.944;2023-09-19T07:14:44;0.93;;;0.80;;
12675;SDS011;63820;65.654;21.944;2023-09-19T07:17:28;0.83;;;0.70;;
12675;SDS011;63820;65.654;21.944;2023-09-19T07:20:13;1.73;;;0.77;;
12675;SDS011;63820;65.654;21.944;2023-09-19T07:23:00;1.83;;;0.90;;
12675;SDS011;63820;65.654;21.944;2023-09-19T07:25:44;1.03;;;0.90;;
12675;SDS011;63820;65.654;21.944;2023-09-19T07:28:30;2.27;;;0.90;;
12675;SDS011;63820;65.654;21.944;2023-09-19T07:31:13;1.47;;;0.90;;
12675;SDS011;63820;65.654;21.944;2023-09-19T07:33:59;1.10;;;0.80;;
12675;SDS011;63820;65.654;21.944;2023-09-19T07:36:43;2.37;;;1.10;;
12675;SDS011;63820;65.654;21.944;2023-09-19T07:39:27;1.30;;;0.70;;
12675;SDS011;63820;65.654;21.944;2023-09-19T07:42:11;1.70;;;1.00;;
12675;SDS011;63820;65.654;21.944;2023-09-19T07:45:01;2.50;;;1.00;;
12675;SDS011;63820;65.654;21.944;2023-09-19T07:47:46;2.10;;;0.90;;
12675;SDS011;63820;65.654;21.944;2023-09-19T07:50:30;1.53;;;1.10;;
12675;SDS011;63820;65.654;21.944;2023-09-19T07:53:14;2.17;;;1.20;;
12675;SDS011;63820;65.654;21.944;2023-09-19T07:56:07;1.87;;;1.27;;
12675;SDS011;63820;65.654;21.944;2023-09-19T07:58:52;2.00;;;1.10;;
12675;SDS011;63820;65.654;21.944;2023-09-19T08:01:36;1.60;;;0.93;;
12675;SDS011;63820;65.654;21.944;2023-09-19T08:04:21;1.93;;;1.00;;
12675;SDS011;63820;65.654;21.944;2023-09-19T08:07:05;1.93;;;1.07;;
12675;SDS011;63820;65.654;21.944;2023-09-19T08:09:49;2.20;;;0.90;;
12675;SDS011;63820;65.654;21.944;2023-09-19T08:12:34;1.20;;;0.90;;
12675;SDS011;63820;65.654;21.944;2023-09-19T08:15:21;1.83;;;1.10;;
12675;SDS011;63820;65.654;21.944;2023-09-19T08:18:05;2.20;;;1.30;;
12675;SDS011;63820;65.654;21.944;2023-09-19T08:20:49;1.50;;;0.90;;
12675;SDS011;63820;65.654;21.944;2023-09-19T08:23:39;1.50;;;0.87;;
12675;SDS011;63820;65.654;21.944;2023-09-19T08:26:23;1.30;;;1.10;;
12675;SDS011;63820;65.654;21.944;2023-09-19T08:29:08;2.13;;;1.50;;
12675;SDS011;63820;65.654;21.944;2023-09-19T08:31:56;1.43;;;1.17;;
12675;SDS011;63820;65.654;21.944;2023-09-19T08:34:40;2.93;;;1.07;;
12675;SDS011;63820;65.654;21.944;2023-09-19T08:37:25;1.40;;;1.10;;
12675;SDS011;63820;65.654;21.944;2023-09-19T08:40:09;1.83;;;1.10;;
12675;SDS011;63820;65.654;21.944;2023-09-19T08:42:55;2.87;;;1.17;;
12675;SDS011;63820;65.654;21.944;2023-09-19T08:45:40;1.70;;;0.80;;
12675;SDS011;63820;65.654;21.944;2023-09-19T08:48:27;1.27;;;1.07;;
12675;SDS011;63820;65.654;21.944;2023-09-19T08:51:39;1.63;;;1.10;;
12675;SDS011;63820;65.654;21.944;2023-09-19T08:54:25;2.80;;;1.10;;
12675;SDS011;63820;65.654;21.944;2023-09-19T08:57:13;2.83;;;1.20;;
12675;SDS011;63820;65.654;21.944;2023-09-19T09:00:05;1.77;;;1.17;;
12675;SDS011;63820;65.654;21.944;2023-09-19T09:02:54;2.57;;;1.00;;
12675;SDS011;63820;65.654;21.944;2023-09-19T09:05:39;1.27;;;0.83;;
12675;SDS011;63820;65.654;21.944;2023-09-19T09:08:27;1.23;;;1.03;;
12675;SDS011;63820;65.654;21.944;2023-09-19T09:11:14;1.57;;;1.00;;
12675;SDS011;63820;65.654;21.944;2023-09-19T09:14:00;1.13;;;1.00;;
12675;SDS011;63820;65.654;21.944;2023-09-19T09:16:44;1.53;;;1.10;;
12675;SDS011;63820;65.654;21.944;2023-09-19T09:19:30;2.17;;;1.20;;
12675;SDS011;63820;65.654;21.944;2023-09-19T09:22:14;2.60;;;1.23;;
12675;SDS011;63820;65.654;21.944;2023-09-19T09:25:01;1.40;;;1.20;;
12675;SDS011;63820;65.654;21.944;2023-09-19T09:27:57;2.40;;;1.17;;
12675;SDS011;63820;65.654;21.944;2023-09-19T09:30:43;1.80;;;1.10;;
12675;SDS011;63820;65.654;21.944;2023-09-19T09:33:27;2.53;;;1.27;;
12675;SDS011;63820;65.654;21.944;2023-09-19T09:36:12;1.43;;;1.30;;
12675;SDS011;63820;65.654;21.944;2023-09-19T09:38:58;2.17;;;1.13;;
12675;SDS011;63820;65.654;21.944;2023-09-19T09:41:42;1.50;;;1.20;;
12675;SDS011;63820;65.654;21.944;2023-09-19T09:44:27;1.50;;;1.23;;
12675;SDS011;63820;65.654;21.944;2023-09-19T09:47:15;1.70;;;1.30;;
12675;SDS011;63820;65.654;21.944;2023-09-19T09:50:34;1.83;;;1.20;;
12675;SDS011;63820;65.654;21.944;2023-09-19T09:53:34;3.13;;;1.50;;
12675;SDS011;63820;65.654;21.944;2023-09-19T09:56:20;2.00;;;1.30;;
12675;SDS011;63820;65.654;21.944;2023-09-19T09:59:03;1.83;;;1.30;;
12675;SDS011;63820;65.654;21.944;2023-09-19T10:01:48;1.50;;;1.13;;
12675;SDS011;63820;65.654;21.944;2023-09-19T10:04:32;3.87;;;1.30;;
12675;SDS011;63820;65.654;21.944;2023-09-19T10:07:26;1.90;;;1.10;;
12675;SDS011;63820;65.654;21.944;2023-09-19T10:10:35;1.40;;;1.13;;
12675;SDS011;63820;65.654;21.944;2023-09-19T10:13:25;1.20;;;1.03;;
12675;SDS011;63820;65.654;21.944;2023-09-19T10:16:13;1.67;;;1.20;;
12675;SDS011;63820;65.654;21.944;2023-09-19T10:18:58;2.30;;;1.40;;
12675;SDS011;63820;65.654;21.944;2023-09-19T10:21:45;1.90;;;1.33;;
12675;SDS011;63820;65.654;21.944;2023-09-19T10:24:30;1.60;;;1.50;;
12675;SDS011;63820;65.654;21.944;2023-09-19T10:27:18;1.77;;;1.50;;
12675;SDS011;63820;65.654;21.944;2023-09-19T10:30:07;3.47;;;1.67;;
12675;SDS011;63820;65.654;21.944;2023-09-19T10:32:57;1.63;;;1.50;;
12675;SDS011;63820;65.654;21.944;2023-09-19T10:35:44;2.43;;;1.90;;
12675;SDS011;63820;65.654;21.944;2023-09-19T10:38:30;2.20;;;1.40;;
12675;SDS011;63820;65.654;21.944;2023-09-19T10:41:16;2.40;;;2.20;;
12675;SDS011;63820;65.654;21.944;2023-09-19T10:44:04;1.70;;;1.40;;
12675;SDS011;63820;65.654;21.944;2023-09-19T10:46:49;2.87;;;1.60;;
12675;SDS011;63820;65.654;21.944;2023-09-19T10:49:35;2.30;;;1.40;;
12675;SDS011;63820;65.654;21.944;2023-09-19T10:52:30;2.43;;;1.20;;
12675;SDS011;63820;65.654;21.944;2023-09-19T10:55:17;1.20;;;1.10;;
12675;SDS011;63820;65.654;21.944;2023-09-19T10:58:02;1.73;;;1.37;;
12675;SDS011;63820;65.654;21.944;2023-09-19T11:00:58;2.17;;;1.50;;
12675;SDS011;63820;65.654;21.944;2023-09-19T11:04:33;2.90;;;1.30;;
12675;SDS011;63820;65.654;21.944;2023-09-19T11:07:20;1.33;;;1.23;;
12675;SDS011;63820;65.654;21.944;2023-09-19T11:10:04;1.93;;;1.20;;
12675;SDS011;63820;65.654;21.944;2023-09-19T11:12:53;1.77;;;1.53;;
12675;SDS011;63820;65.654;21.944;2023-09-19T11:27:09;2.10;;;1.50;;
12675;SDS011;63820;65.654;21.944;2023-09-19T11:30:25;2.67;;;1.40;;
12675;SDS011;63820;65.654;21.944;2023-09-19T11:33:20;2.40;;;1.10;;
12675;SDS011;63820;65.654;21.944;2023-09-19T11:36:12;2.97;;;1.60;;
12675;SDS011;63820;65.654;21.944;2023-09-19T11:39:18;1.93;;;1.47;;
12675;SDS011;63820;65.654;21.944;2023-09-19T11:46:01;1.47;;;1.33;;
12675;SDS011;63820;65.654;21.944;2023-09-19T11:48:45;1.97;;;1.60;;
12675;SDS011;63820;65.654;21.944;2023-09-19T11:51:37;2.00;;;1.50;;
12675;SDS011;63820;65.654;21.944;2023-09-19T11:54:24;2.10;;;1.40;;
12675;SDS011;63820;65.654;21.944;2023-09-19T11:57:11;1.83;;;1.40;;
12675;SDS011;63820;65.654;21.944;2023-09-19T12:00:04;2.43;;;1.50;;
12675;SDS011;63820;65.654;21.944;2023-09-19T12:02:53;1.67;;;1.57;;
12675;SDS011;63820;65.654;21.944;2023-09-19T12:05:39;2.10;;;1.53;;
12675;SDS011;63820;65.654;21.944;2023-09-19T12:08:24;1.73;;;1.63;;
12675;SDS011;63820;65.654;21.944;2023-09-19T12:11:14;2.07;;;1.77;;
12675;SDS011;63820;65.654;21.944;2023-09-19T12:14:04;2.63;;;2.07;;
12675;SDS011;63820;65.654;21.944;2023-09-19T12:16:54;2.80;;;2.10;;
12675;SDS011;63820;65.654;21.944;2023-09-19T12:19:40;2.20;;;2.00;;
12675;SDS011;63820;65.654;21.944;2023-09-19T12:22:44;4.07;;;2.47;;
12675;SDS011;63820;65.654;21.944;2023-09-19T12:25:40;2.97;;;2.40;;
12675;SDS011;63820;65.654;21.944;2023-09-19T12:28:31;4.87;;;2.40;;
12675;SDS011;63820;65.654;21.944;2023-09-19T12:31:18;4.30;;;2.50;;
12675;SDS011;63820;65.654;21.944;2023-09-19T12:34:03;4.43;;;2.63;;
12675;SDS011;63820;65.654;21.944;2023-09-19T12:36:48;3.10;;;2.70;;
12675;SDS011;63820;65.654;21.944;2023-09-19T12:39:32;2.80;;;2.47;;
12675;SDS011;63820;65.654;21.944;2023-09-19T12:42:21;3.47;;;2.70;;
12675;SDS011;63820;65.654;21.944;2023-09-19T12:45:06;4.10;;;2.97;;
12675;SDS011;63820;65.654;21.944;2023-09-19T12:51:18;3.43;;;3.00;;
12675;SDS011;63820;65.654;21.944;2023-09-19T12:54:06;3.80;;;3.30;;
12675;SDS011;63820;65.654;21.944;2023-09-19T12:56:51;3.33;;;3.03;;
12675;SDS011;63820;65.654;21.944;2023-09-19T12:59:38;4.00;;;2.80;;
12675;SDS011;63820;65.654;21.944;2023-09-19T13:02:22;4.47;;;3.10;;
12675;SDS011;63820;65.654;21.944;2023-09-19T13:05:08;3.23;;;2.90;;
12675;SDS011;63820;65.654;21.944;2023-09-19T13:07:53;3.20;;;2.57;;
12675;SDS011;63820;65.654;21.944;2023-09-19T13:10:59;4.70;;;3.07;;
12675;SDS011;63820;65.654;21.944;2023-09-19T13:17:06;3.33;;;2.90;;
12675;SDS011;63820;65.654;21.944;2023-09-19T13:20:00;3.97;;;3.20;;
12675;SDS011;63820;65.654;21.944;2023-09-19T13:22:46;3.97;;;2.73;;
12675;SDS011;63820;65.654;21.944;2023-09-19T13:25:37;3.93;;;2.60;;
12675;SDS011;63820;65.654;21.944;2023-09-19T13:28:25;3.13;;;2.60;;
12675;SDS011;63820;65.654;21.944;2023-09-19T13:31:10;4.00;;;3.03;;
12675;SDS011;63820;65.654;21.944;2023-09-19T13:33:57;4.90;;;3.10;;
12675;SDS011;63820;65.654;21.944;2023-09-19T13:36:41;4.53;;;2.90;;
12675;SDS011;63820;65.654;21.944;2023-09-19T13:39:26;4.33;;;2.53;;
12675;SDS011;63820;65.654;21.944;2023-09-19T13:42:10;3.30;;;3.00;;
12675;SDS011;63820;65.654;21.944;2023-09-19T13:44:55;4.43;;;2.80;;
12675;SDS011;63820;65.654;21.944;2023-09-19T13:47:40;3.77;;;3.07;;
12675;SDS011;63820;65.654;21.944;2023-09-19T13:50:24;3.33;;;2.97;;
12675;SDS011;63820;65.654;21.944;2023-09-19T13:53:10;4.30;;;2.63;;
12675;SDS011;63820;65.654;21.944;2023-09-19T13:55:55;3.10;;;2.67;;
12675;SDS011;63820;65.654;21.944;2023-09-19T13:58:40;3.50;;;2.90;;
12675;SDS011;63820;65.654;21.944;2023-09-19T14:01:25;3.23;;;2.63;;
12675;SDS011;63820;65.654;21.944;2023-09-19T14:04:10;3.03;;;2.73;;
12675;SDS011;63820;65.654;21.944;2023-09-19T14:06:55;3.23;;;2.93;;
12675;SDS011;63820;65.654;21.944;2023-09-19T14:09:41;3.63;;;3.30;;
12675;SDS011;63820;65.654;21.944;2023-09-19T14:12:25;3.47;;;2.90;;
12675;SDS011;63820;65.654;21.944;2023-09-19T14:15:09;3.20;;;2.90;;
12675;SDS011;63820;65.654;21.944;2023-09-19T14:17:54;4.40;;;3.03;;
12675;SDS011;63820;65.654;21.944;2023-09-19T14:20:39;4.10;;;3.07;;
12675;SDS011;63820;65.654;21.944;2023-09-19T14:23:25;3.40;;;2.90;;
12675;SDS011;63820;65.654;21.944;2023-09-19T14:26:10;3.33;;;2.83;;
12675;SDS011;63820;65.654;21.944;2023-09-19T14:28:54;3.40;;;3.10;;
12675;SDS011;63820;65.654;21.944;2023-09-19T14:31:38;3.80;;;3.20;;
12675;SDS011;63820;65.654;21.944;2023-09-19T14:34:23;3.40;;;3.10;;
12675;SDS011;63820;65.654;21.944;2023-09-19T14:37:08;3.27;;;2.80;;
12675;SDS011;63820;65.654;21.944;2023-09-19T14:39:52;4.13;;;2.80;;
12675;SDS011;63820;65.654;21.944;2023-09-19T14:42:38;3.20;;;2.73;;
12675;SDS011;63820;65.654;21.944;2023-09-19T14:45:23;5.53;;;3.00;;
12675;SDS011;63820;65.654;21.944;2023-09-19T14:48:08;3.57;;;2.90;;
12675;SDS011;63820;65.654;21.944;2023-09-19T14:50:52;3.40;;;2.73;;
12675;SDS011;63820;65.654;21.944;2023-09-19T14:53:37;4.57;;;2.80;;
12675;SDS011;63820;65.654;21.944;2023-09-19T14:56:21;4.63;;;2.80;;
12675;SDS011;63820;65.654;21.944;2023-09-19T14:59:07;3.33;;;2.90;;
12675;SDS011;63820;65.654;21.944;2023-09-19T15:14:24;3.60;;;2.67;;
12675;SDS011;63820;65.654;21.944;2023-09-19T15:17:08;3.17;;;2.70;;
12675;SDS011;63820;65.654;21.944;2023-09-19T15:19:52;3.57;;;2.77;;
12675;SDS011;63820;65.654;21.944;2023-09-19T15:22:37;3.47;;;2.60;;
12675;SDS011;63820;65.654;21.944;2023-09-19T15:25:22;3.23;;;2.80;;
12675;SDS011;63820;65.654;21.944;2023-09-19T15:28:07;4.77;;;2.90;;
12675;SDS011;63820;65.654;21.944;2023-09-19T15:31:02;4.87;;;2.77;;
12675;SDS011;63820;65.654;21.944;2023-09-19T15:33:46;4.97;;;2.80;;
12675;SDS011;63820;65.654;21.944;2023-09-19T15:36:30;3.43;;;2.80;;
12675;SDS011;63820;65.654;21.944;2023-09-19T15:39:14;3.60;;;2.90;;
12675;SDS011;63820;65.654;21.944;2023-09-19T15:42:00;4.77;;;3.23;;
12675;SDS011;63820;65.654;21.944;2023-09-19T15:44:43;4.57;;;2.97;;
12675;SDS011;63820;65.654;21.944;2023-09-19T15:47:30;4.23;;;2.83;;
12675;SDS011;63820;65.654;21.944;2023-09-19T15:50:14;5.33;;;3.30;;
12675;SDS011;63820;65.654;21.944;2023-09-19T15:52:58;4.43;;;3.17;;
12675;SDS011;63820;65.654;21.944;2023-09-19T15:55:42;4.13;;;3.13;;
12675;SDS011;63820;65.654;21.944;2023-09-19T15:58:27;3.30;;;2.97;;
12675;SDS011;63820;65.654;21.944;2023-09-19T16:01:12;3.93;;;3.10;;
12675;SDS011;63820;65.654;21.944;2023-09-19T16:03:56;4.07;;;2.80;;
12675;SDS011;63820;65.654;21.944;2023-09-19T16:06:41;4.73;;;3.20;;
12675;SDS011;63820;65.654;21.944;2023-09-19T16:09:25;3.83;;;2.83;;
12675;SDS011;63820;65.654;21.944;2023-09-19T16:12:09;3.30;;;2.80;;
12675;SDS011;63820;65.654;21.944;2023-09-19T16:14:55;4.60;;;2.80;;
12675;SDS011;63820;65.654;21.944;2023-09-19T16:17:40;3.50;;;3.17;;
12675;SDS011;63820;65.654;21.944;2023-09-19T16:20:24;2.93;;;2.63;;
12675;SDS011;63820;65.654;21.944;2023-09-19T16:23:08;3.13;;;2.57;;
12675;SDS011;63820;65.654;21.944;2023-09-19T16:26:04;3.03;;;2.43;;
12675;SDS011;63820;65.654;21.944;2023-09-19T16:28:50;3.90;;;2.57;;
12675;SDS011;63820;65.654;21.944;2023-09-19T16:31:35;2.83;;;2.53;;
12675;SDS011;63820;65.654;21.944;2023-09-19T16:34:19;3.00;;;2.27;;
12675;SDS011;63820;65.654;21.944;2023-09-19T16:37:03;3.27;;;2.30;;
12675;SDS011;63820;65.654;21.944;2023-09-19T16:39:47;3.60;;;2.30;;
12675;SDS011;63820;65.654;21.944;2023-09-19T16:42:31;2.63;;;2.23;;
12675;SDS011;63820;65.654;21.944;2023-09-19T16:45:15;2.03;;;1.80;;
12675;SDS011;63820;65.654;21.944;2023-09-19T16:47:59;2.57;;;2.10;;
12675;SDS011;63820;65.654;21.944;2023-09-19T16:50:43;2.20;;;1.73;;
12675;SDS011;63820;65.654;21.944;2023-09-19T16:53:27;2.87;;;2.20;;
12675;SDS011;63820;65.654;21.944;2023-09-19T16:56:13;1.90;;;1.70;;
12675;SDS011;63820;65.654;21.944;2023-09-19T16:58:58;4.30;;;2.00;;
12675;SDS011;63820;65.654;21.944;2023-09-19T17:01:44;1.70;;;1.60;;
12675;SDS011;63820;65.654;21.944;2023-09-19T17:04:29;2.83;;;1.63;;
12675;SDS011;63820;65.654;21.944;2023-09-19T17:07:15;2.57;;;2.20;;
12675;SDS011;63820;65.654;21.944;2023-09-19T17:09:59;1.80;;;1.70;;
12675;SDS011;63820;65.654;21.944;2023-09-19T17:12:43;1.70;;;1.60;;
12675;SDS011;63820;65.654;21.944;2023-09-19T17:15:27;2.23;;;1.80;;
12675;SDS011;63820;65.654;21.944;2023-09-19T17:18:13;1.63;;;1.43;;
12675;SDS011;63820;65.654;21.944;2023-09-19T17:20:58;2.90;;;1.60;;
12675;SDS011;63820;65.654;21.944;2023-09-19T17:23:43;1.67;;;1.57;;